sensor_id;sensor_type;location;lat;lon;timestamp;P1;durP1;ratioP1;P2;durP2;ratioP2
23750;SDS011;12055;52.098;13.176;2022-07-12T00:01:05;4.05;;;1.85;;
23750;SDS011;12055;52.098;13.176;2022-07-12T00:03:30;1.95;;;1.50;;
23750;SDS011;12055;52.098;13.176;2022-07-12T00:05:57;1.70;;;1.48;;
23750;SDS011;12055;52.098;13.176;2022-07-12T00:08:23;2.15;;;1.48;;
23750;SDS011;12055;52.098;13.176;2022-07-12T00:10:48;4.20;;;1.55;;
23750;SDS011;12055;52.098;13.176;2022-07-12T00:13:14;3.25;;;1.58;;
23750;SDS011;12055;52.098;13.176;2022-07-12T00:15:40;2.05;;;1.67;;
23750;SDS011;12055;52.098;13.176;2022-07-12T00:18:06;2.25;;;1.63;;
23750;SDS011;12055;52.098;13.176;2022-07-12T00:20:31;5.13;;;2.00;;
23750;SDS011;12055;52.098;13.176;2022-07-12T00:22:57;1.80;;;1.52;;
23750;SDS011;12055;52.098;13.176;2022-07-12T00:25:22;1.90;;;1.40;;
23750;SDS011;12055;52.098;13.176;2022-07-12T00:27:48;2.08;;;1.65;;
23750;SDS011;12055;52.098;13.176;2022-07-12T00:30:15;2.92;;;1.50;;
23750;SDS011;12055;52.098;13.176;2022-07-12T00:32:40;2.22;;;1.52;;
23750;SDS011;12055;52.098;13.176;2022-07-12T00:35:06;2.35;;;1.73;;
23750;SDS011;12055;52.098;13.176;2022-07-12T00:37:32;2.25;;;1.98;;
23750;SDS011;12055;52.098;13.176;2022-07-12T00:39:57;1.63;;;1.40;;
23750;SDS011;12055;52.098;13.176;2022-07-12T00:42:24;4.38;;;2.10;;
23750;SDS011;12055;52.098;13.176;2022-07-12T00:44:50;1.65;;;1.50;;
23750;SDS011;12055;52.098;13.176;2022-07-12T00:47:21;5.65;;;2.45;;
23750;SDS011;12055;52.098;13.176;2022-07-12T00:49:56;1.40;;;1.30;;
23750;SDS011;12055;52.098;13.176;2022-07-12T00:52:23;2.33;;;1.30;;
23750;SDS011;12055;52.098;13.176;2022-07-12T00:54:49;3.92;;;1.80;;
23750;SDS011;12055;52.098;13.176;2022-07-12T00:57:15;1.80;;;1.50;;
23750;SDS011;12055;52.098;13.176;2022-07-12T00:59:40;1.60;;;1.20;;
23750;SDS011;12055;52.098;13.176;2022-07-12T01:02:06;2.95;;;1.27;;
23750;SDS011;12055;52.098;13.176;2022-07-12T01:04:32;2.97;;;1.50;;
23750;SDS011;12055;52.098;13.176;2022-07-12T01:06:58;3.30;;;1.60;;
23750;SDS011;12055;52.098;13.176;2022-07-12T01:09:24;19.98;;;2.40;;
23750;SDS011;12055;52.098;13.176;2022-07-12T01:11:49;3.45;;;1.33;;
23750;SDS011;12055;52.098;13.176;2022-07-12T01:14:15;4.22;;;1.70;;
23750;SDS011;12055;52.098;13.176;2022-07-12T01:16:40;1.88;;;1.50;;
23750;SDS011;12055;52.098;13.176;2022-07-12T01:19:06;3.08;;;1.70;;
23750;SDS011;12055;52.098;13.176;2022-07-12T01:21:34;1.60;;;1.50;;
23750;SDS011;12055;52.098;13.176;2022-07-12T01:24:03;1.77;;;1.17;;
23750;SDS011;12055;52.098;13.176;2022-07-12T01:26:31;2.00;;;1.30;;
23750;SDS011;12055;52.098;13.176;2022-07-12T01:28:57;2.25;;;1.27;;
23750;SDS011;12055;52.098;13.176;2022-07-12T01:31:23;1.77;;;1.55;;
23750;SDS011;12055;52.098;13.176;2022-07-12T01:33:48;3.60;;;1.48;;
23750;SDS011;12055;52.098;13.176;2022-07-12T01:36:15;1.95;;;1.33;;
23750;SDS011;12055;52.098;13.176;2022-07-12T01:38:41;1.55;;;1.17;;
23750;SDS011;12055;52.098;13.176;2022-07-12T01:41:07;3.55;;;1.55;;
23750;SDS011;12055;52.098;13.176;2022-07-12T01:43:33;4.45;;;1.50;;
23750;SDS011;12055;52.098;13.176;2022-07-12T01:45:58;5.10;;;1.80;;
23750;SDS011;12055;52.098;13.176;2022-07-12T01:48:24;4.78;;;1.33;;
23750;SDS011;12055;52.098;13.176;2022-07-12T01:50:49;5.28;;;1.88;;
23750;SDS011;12055;52.098;13.176;2022-07-12T01:53:15;2.42;;;1.50;;
23750;SDS011;12055;52.098;13.176;2022-07-12T01:55:41;1.95;;;1.50;;
23750;SDS011;12055;52.098;13.176;2022-07-12T01:58:06;6.22;;;2.28;;
23750;SDS011;12055;52.098;13.176;2022-07-12T02:00:32;1.88;;;1.70;;
23750;SDS011;12055;52.098;13.176;2022-07-12T02:02:58;1.95;;;1.33;;
23750;SDS011;12055;52.098;13.176;2022-07-12T02:05:23;2.83;;;2.00;;
23750;SDS011;12055;52.098;13.176;2022-07-12T02:07:49;2.25;;;1.52;;
23750;SDS011;12055;52.098;13.176;2022-07-12T02:10:15;3.78;;;1.58;;
23750;SDS011;12055;52.098;13.176;2022-07-12T02:12:41;3.35;;;1.77;;
23750;SDS011;12055;52.098;13.176;2022-07-12T02:15:06;2.30;;;1.50;;
23750;SDS011;12055;52.098;13.176;2022-07-12T02:17:33;2.05;;;1.30;;
23750;SDS011;12055;52.098;13.176;2022-07-12T02:19:58;5.35;;;1.65;;
23750;SDS011;12055;52.098;13.176;2022-07-12T02:22:24;3.53;;;1.52;;
23750;SDS011;12055;52.098;13.176;2022-07-12T02:24:50;2.47;;;1.40;;
23750;SDS011;12055;52.098;13.176;2022-07-12T02:27:15;2.60;;;1.30;;
23750;SDS011;12055;52.098;13.176;2022-07-12T02:29:41;5.63;;;1.60;;
23750;SDS011;12055;52.098;13.176;2022-07-12T02:32:07;2.40;;;1.98;;
23750;SDS011;12055;52.098;13.176;2022-07-12T02:34:32;2.88;;;1.50;;
23750;SDS011;12055;52.098;13.176;2022-07-12T02:36:58;3.03;;;1.60;;
23750;SDS011;12055;52.098;13.176;2022-07-12T02:39:24;3.83;;;1.50;;
23750;SDS011;12055;52.098;13.176;2022-07-12T02:41:49;1.67;;;1.40;;
23750;SDS011;12055;52.098;13.176;2022-07-12T02:44:15;3.08;;;1.55;;
23750;SDS011;12055;52.098;13.176;2022-07-12T02:46:40;3.45;;;1.75;;
23750;SDS011;12055;52.098;13.176;2022-07-12T02:49:06;1.50;;;1.40;;
23750;SDS011;12055;52.098;13.176;2022-07-12T02:51:32;2.30;;;2.00;;
23750;SDS011;12055;52.098;13.176;2022-07-12T02:53:57;1.63;;;1.33;;
23750;SDS011;12055;52.098;13.176;2022-07-12T02:56:24;2.15;;;1.85;;
23750;SDS011;12055;52.098;13.176;2022-07-12T02:58:50;2.95;;;1.20;;
23750;SDS011;12055;52.098;13.176;2022-07-12T03:01:15;5.78;;;1.50;;
23750;SDS011;12055;52.098;13.176;2022-07-12T03:03:41;3.30;;;2.15;;
23750;SDS011;12055;52.098;13.176;2022-07-12T03:06:06;1.63;;;1.52;;
23750;SDS011;12055;52.098;13.176;2022-07-12T03:08:32;4.05;;;1.70;;
23750;SDS011;12055;52.098;13.176;2022-07-12T03:10:57;2.30;;;1.52;;
23750;SDS011;12055;52.098;13.176;2022-07-12T03:13:23;4.72;;;1.40;;
23750;SDS011;12055;52.098;13.176;2022-07-12T03:15:48;2.33;;;1.42;;
23750;SDS011;12055;52.098;13.176;2022-07-12T03:18:15;3.60;;;1.58;;
23750;SDS011;12055;52.098;13.176;2022-07-12T03:20:42;1.90;;;1.58;;
23750;SDS011;12055;52.098;13.176;2022-07-12T03:23:07;2.38;;;1.63;;
23750;SDS011;12055;52.098;13.176;2022-07-12T03:25:33;3.97;;;1.77;;
23750;SDS011;12055;52.098;13.176;2022-07-12T03:27:58;3.15;;;1.75;;
23750;SDS011;12055;52.098;13.176;2022-07-12T03:30:24;2.47;;;1.80;;
23750;SDS011;12055;52.098;13.176;2022-07-12T03:32:50;2.70;;;1.83;;
23750;SDS011;12055;52.098;13.176;2022-07-12T03:35:15;2.92;;;1.63;;
23750;SDS011;12055;52.098;13.176;2022-07-12T03:40:13;2.08;;;1.60;;
23750;SDS011;12055;52.098;13.176;2022-07-12T03:42:40;4.18;;;1.77;;
23750;SDS011;12055;52.098;13.176;2022-07-12T03:45:07;4.65;;;1.90;;
23750;SDS011;12055;52.098;13.176;2022-07-12T03:47:33;4.20;;;1.88;;
23750;SDS011;12055;52.098;13.176;2022-07-12T03:50:00;2.35;;;2.05;;
23750;SDS011;12055;52.098;13.176;2022-07-12T03:52:35;2.83;;;1.85;;
23750;SDS011;12055;52.098;13.176;2022-07-12T03:55:01;3.95;;;1.98;;
23750;SDS011;12055;52.098;13.176;2022-07-12T03:57:27;3.83;;;2.10;;
23750;SDS011;12055;52.098;13.176;2022-07-12T03:59:53;3.55;;;1.70;;
23750;SDS011;12055;52.098;13.176;2022-07-12T04:02:20;2.58;;;1.83;;
23750;SDS011;12055;52.098;13.176;2022-07-12T04:04:45;2.85;;;1.70;;
23750;SDS011;12055;52.098;13.176;2022-07-12T04:07:11;3.92;;;1.88;;
23750;SDS011;12055;52.098;13.176;2022-07-12T04:09:37;5.10;;;1.83;;
23750;SDS011;12055;52.098;13.176;2022-07-12T04:12:02;2.53;;;1.90;;
23750;SDS011;12055;52.098;13.176;2022-07-12T04:14:28;2.63;;;1.65;;
23750;SDS011;12055;52.098;13.176;2022-07-12T04:16:54;2.05;;;1.67;;
23750;SDS011;12055;52.098;13.176;2022-07-12T04:19:21;2.45;;;1.50;;
23750;SDS011;12055;52.098;13.176;2022-07-12T04:21:49;2.25;;;1.60;;
23750;SDS011;12055;52.098;13.176;2022-07-12T04:24:14;2.63;;;1.70;;
23750;SDS011;12055;52.098;13.176;2022-07-12T04:26:40;5.50;;;1.90;;
23750;SDS011;12055;52.098;13.176;2022-07-12T04:29:05;3.15;;;1.90;;
23750;SDS011;12055;52.098;13.176;2022-07-12T04:31:31;3.40;;;1.45;;
23750;SDS011;12055;52.098;13.176;2022-07-12T04:33:56;5.80;;;2.17;;
23750;SDS011;12055;52.098;13.176;2022-07-12T04:36:22;2.63;;;1.42;;
23750;SDS011;12055;52.098;13.176;2022-07-12T04:38:47;5.60;;;1.80;;
23750;SDS011;12055;52.098;13.176;2022-07-12T04:41:13;3.67;;;1.80;;
23750;SDS011;12055;52.098;13.176;2022-07-12T04:43:38;5.72;;;1.95;;
23750;SDS011;12055;52.098;13.176;2022-07-12T04:46:07;2.33;;;1.48;;
23750;SDS011;12055;52.098;13.176;2022-07-12T04:48:33;4.30;;;1.50;;
23750;SDS011;12055;52.098;13.176;2022-07-12T04:50:59;2.78;;;1.75;;
23750;SDS011;12055;52.098;13.176;2022-07-12T04:53:24;4.90;;;1.60;;
23750;SDS011;12055;52.098;13.176;2022-07-12T04:55:50;3.47;;;1.52;;
23750;SDS011;12055;52.098;13.176;2022-07-12T04:58:15;2.35;;;1.42;;
23750;SDS011;12055;52.098;13.176;2022-07-12T05:00:41;2.80;;;1.30;;
23750;SDS011;12055;52.098;13.176;2022-07-12T05:03:06;1.60;;;1.33;;
23750;SDS011;12055;52.098;13.176;2022-07-12T05:05:31;5.55;;;1.83;;
23750;SDS011;12055;52.098;13.176;2022-07-12T05:07:57;2.50;;;1.40;;
23750;SDS011;12055;52.098;13.176;2022-07-12T05:10:22;2.70;;;1.23;;
23750;SDS011;12055;52.098;13.176;2022-07-12T05:12:48;2.85;;;1.70;;
23750;SDS011;12055;52.098;13.176;2022-07-12T05:15:13;1.80;;;1.30;;
23750;SDS011;12055;52.098;13.176;2022-07-12T05:17:39;3.97;;;1.30;;
23750;SDS011;12055;52.098;13.176;2022-07-12T05:20:04;4.00;;;1.40;;
23750;SDS011;12055;52.098;13.176;2022-07-12T05:22:31;3.05;;;1.55;;
23750;SDS011;12055;52.098;13.176;2022-07-12T05:24:56;1.60;;;1.40;;
23750;SDS011;12055;52.098;13.176;2022-07-12T05:27:22;3.65;;;1.70;;
23750;SDS011;12055;52.098;13.176;2022-07-12T05:29:47;1.92;;;1.13;;
23750;SDS011;12055;52.098;13.176;2022-07-12T05:32:13;2.15;;;1.15;;
23750;SDS011;12055;52.098;13.176;2022-07-12T05:34:38;3.70;;;1.55;;
23750;SDS011;12055;52.098;13.176;2022-07-12T05:37:04;1.52;;;1.05;;
23750;SDS011;12055;52.098;13.176;2022-07-12T05:39:29;3.00;;;1.50;;
23750;SDS011;12055;52.098;13.176;2022-07-12T05:41:55;1.98;;;1.30;;
23750;SDS011;12055;52.098;13.176;2022-07-12T05:44:21;3.03;;;1.20;;
23750;SDS011;12055;52.098;13.176;2022-07-12T05:46:47;3.92;;;1.40;;
23750;SDS011;12055;52.098;13.176;2022-07-12T05:49:13;1.05;;;0.95;;
23750;SDS011;12055;52.098;13.176;2022-07-12T05:51:38;1.30;;;1.17;;
23750;SDS011;12055;52.098;13.176;2022-07-12T05:54:23;4.88;;;2.35;;
23750;SDS011;12055;52.098;13.176;2022-07-12T05:56:48;2.50;;;1.20;;
23750;SDS011;12055;52.098;13.176;2022-07-12T05:59:16;2.00;;;1.08;;
23750;SDS011;12055;52.098;13.176;2022-07-12T06:01:44;4.10;;;1.08;;
23750;SDS011;12055;52.098;13.176;2022-07-12T06:04:09;0.85;;;0.85;;
23750;SDS011;12055;52.098;13.176;2022-07-12T06:06:35;5.38;;;1.10;;
23750;SDS011;12055;52.098;13.176;2022-07-12T06:09:01;1.45;;;0.90;;
23750;SDS011;12055;52.098;13.176;2022-07-12T06:11:27;1.75;;;0.90;;
23750;SDS011;12055;52.098;13.176;2022-07-12T06:13:52;2.65;;;1.17;;
23750;SDS011;12055;52.098;13.176;2022-07-12T06:16:18;1.25;;;0.90;;
23750;SDS011;12055;52.098;13.176;2022-07-12T06:18:43;3.45;;;1.52;;
23750;SDS011;12055;52.098;13.176;2022-07-12T06:21:09;2.35;;;0.95;;
23750;SDS011;12055;52.098;13.176;2022-07-12T06:23:34;2.17;;;1.40;;
23750;SDS011;12055;52.098;13.176;2022-07-12T06:26:00;1.65;;;1.02;;
23750;SDS011;12055;52.098;13.176;2022-07-12T06:28:26;2.92;;;0.98;;
23750;SDS011;12055;52.098;13.176;2022-07-12T06:30:51;3.08;;;1.10;;
23750;SDS011;12055;52.098;13.176;2022-07-12T06:33:17;1.17;;;0.90;;
23750;SDS011;12055;52.098;13.176;2022-07-12T06:35:42;1.23;;;0.90;;
23750;SDS011;12055;52.098;13.176;2022-07-12T06:38:09;2.13;;;1.30;;
23750;SDS011;12055;52.098;13.176;2022-07-12T06:40:34;4.57;;;1.13;;
23750;SDS011;12055;52.098;13.176;2022-07-12T06:43:00;1.08;;;0.98;;
23750;SDS011;12055;52.098;13.176;2022-07-12T06:45:25;3.55;;;1.23;;
23750;SDS011;12055;52.098;13.176;2022-07-12T06:47:51;1.83;;;1.00;;
23750;SDS011;12055;52.098;13.176;2022-07-12T06:50:17;1.88;;;0.73;;
23750;SDS011;12055;52.098;13.176;2022-07-12T06:52:43;1.23;;;0.98;;
23750;SDS011;12055;52.098;13.176;2022-07-12T06:55:08;1.23;;;0.85;;
23750;SDS011;12055;52.098;13.176;2022-07-12T06:57:34;2.50;;;0.90;;
23750;SDS011;12055;52.098;13.176;2022-07-12T07:00:00;3.03;;;0.98;;
23750;SDS011;12055;52.098;13.176;2022-07-12T07:02:27;1.60;;;0.80;;
23750;SDS011;12055;52.098;13.176;2022-07-12T07:04:52;2.38;;;0.93;;
23750;SDS011;12055;52.098;13.176;2022-07-12T07:07:18;2.13;;;0.90;;
23750;SDS011;12055;52.098;13.176;2022-07-12T07:09:43;2.72;;;0.60;;
23750;SDS011;12055;52.098;13.176;2022-07-12T07:12:09;1.15;;;0.80;;
23750;SDS011;12055;52.098;13.176;2022-07-12T07:14:35;1.17;;;1.00;;
23750;SDS011;12055;52.098;13.176;2022-07-12T07:17:00;1.95;;;0.80;;
23750;SDS011;12055;52.098;13.176;2022-07-12T07:19:26;0.90;;;0.80;;
23750;SDS011;12055;52.098;13.176;2022-07-12T07:21:52;2.05;;;1.20;;
23750;SDS011;12055;52.098;13.176;2022-07-12T07:24:20;2.72;;;1.08;;
23750;SDS011;12055;52.098;13.176;2022-07-12T07:26:47;2.13;;;0.93;;
23750;SDS011;12055;52.098;13.176;2022-07-12T07:29:13;1.95;;;0.80;;
23750;SDS011;12055;52.098;13.176;2022-07-12T07:31:57;3.25;;;0.85;;
23750;SDS011;12055;52.098;13.176;2022-07-12T07:34:22;2.05;;;1.10;;
23750;SDS011;12055;52.098;13.176;2022-07-12T07:36:49;2.47;;;0.77;;
23750;SDS011;12055;52.098;13.176;2022-07-12T07:39:17;2.92;;;0.90;;
23750;SDS011;12055;52.098;13.176;2022-07-12T07:41:43;0.90;;;0.60;;
23750;SDS011;12055;52.098;13.176;2022-07-12T07:44:08;3.78;;;0.68;;
23750;SDS011;12055;52.098;13.176;2022-07-12T07:46:34;0.70;;;0.50;;
23750;SDS011;12055;52.098;13.176;2022-07-12T07:48:59;0.55;;;0.50;;
23750;SDS011;12055;52.098;13.176;2022-07-12T07:51:25;0.82;;;0.40;;
23750;SDS011;12055;52.098;13.176;2022-07-12T07:53:50;0.93;;;0.52;;
23750;SDS011;12055;52.098;13.176;2022-07-12T07:56:16;1.58;;;0.65;;
23750;SDS011;12055;52.098;13.176;2022-07-12T07:58:41;2.30;;;0.60;;
23750;SDS011;12055;52.098;13.176;2022-07-12T08:01:07;1.15;;;0.60;;
23750;SDS011;12055;52.098;13.176;2022-07-12T08:03:32;1.08;;;0.50;;
23750;SDS011;12055;52.098;13.176;2022-07-12T08:05:58;0.45;;;0.45;;
23750;SDS011;12055;52.098;13.176;2022-07-12T08:08:25;1.52;;;0.70;;
23750;SDS011;12055;52.098;13.176;2022-07-12T08:10:51;7.35;;;0.63;;
23750;SDS011;12055;52.098;13.176;2022-07-12T08:13:17;0.47;;;0.43;;
23750;SDS011;12055;52.098;13.176;2022-07-12T08:15:42;0.77;;;0.47;;
23750;SDS011;12055;52.098;13.176;2022-07-12T08:18:08;0.40;;;0.40;;
23750;SDS011;12055;52.098;13.176;2022-07-12T08:20:33;0.45;;;0.30;;
23750;SDS011;12055;52.098;13.176;2022-07-12T08:22:59;0.70;;;0.52;;
23750;SDS011;12055;52.098;13.176;2022-07-12T08:25:25;0.55;;;0.40;;
23750;SDS011;12055;52.098;13.176;2022-07-12T08:27:50;0.40;;;0.35;;
23750;SDS011;12055;52.098;13.176;2022-07-12T08:30:15;4.20;;;0.32;;
23750;SDS011;12055;52.098;13.176;2022-07-12T08:32:44;0.68;;;0.20;;
23750;SDS011;12055;52.098;13.176;2022-07-12T08:35:10;0.22;;;0.22;;
23750;SDS011;12055;52.098;13.176;2022-07-12T08:37:35;0.63;;;0.30;;
23750;SDS011;12055;52.098;13.176;2022-07-12T08:40:01;0.80;;;0.50;;
23750;SDS011;12055;52.098;13.176;2022-07-12T08:42:28;0.65;;;0.35;;
23750;SDS011;12055;52.098;13.176;2022-07-12T08:44:54;0.85;;;0.50;;
23750;SDS011;12055;52.098;13.176;2022-07-12T08:47:20;1.30;;;0.40;;
23750;SDS011;12055;52.098;13.176;2022-07-12T08:52:35;0.40;;;0.40;;
23750;SDS011;12055;52.098;13.176;2022-07-12T08:55:52;0.45;;;0.38;;
23750;SDS011;12055;52.098;13.176;2022-07-12T08:57:56;1.05;;;0.57;;
23750;SDS011;12055;52.098;13.176;2022-07-12T09:00:23;0.35;;;0.35;;
23750;SDS011;12055;52.098;13.176;2022-07-12T09:02:52;1.27;;;0.55;;
23750;SDS011;12055;52.098;13.176;2022-07-12T09:05:20;1.65;;;0.80;;
23750;SDS011;12055;52.098;13.176;2022-07-12T09:08:09;2.05;;;0.88;;
23750;SDS011;12055;52.098;13.176;2022-07-12T09:10:50;0.65;;;0.50;;
23750;SDS011;12055;52.098;13.176;2022-07-12T09:13:16;0.98;;;0.40;;
23750;SDS011;12055;52.098;13.176;2022-07-12T09:15:42;1.25;;;0.75;;
23750;SDS011;12055;52.098;13.176;2022-07-12T09:18:08;1.17;;;0.40;;
23750;SDS011;12055;52.098;13.176;2022-07-12T09:20:38;1.33;;;0.50;;
23750;SDS011;12055;52.098;13.176;2022-07-12T09:23:04;1.38;;;0.50;;
23750;SDS011;12055;52.098;13.176;2022-07-12T09:25:37;1.27;;;0.60;;
23750;SDS011;12055;52.098;13.176;2022-07-12T09:28:05;0.80;;;0.50;;
23750;SDS011;12055;52.098;13.176;2022-07-12T09:30:32;0.73;;;0.60;;
23750;SDS011;12055;52.098;13.176;2022-07-12T09:32:59;0.63;;;0.35;;
23750;SDS011;12055;52.098;13.176;2022-07-12T09:38:35;1.50;;;0.30;;
23750;SDS011;12055;52.098;13.176;2022-07-12T09:41:03;0.40;;;0.38;;
23750;SDS011;12055;52.098;13.176;2022-07-12T09:43:29;0.75;;;0.40;;
23750;SDS011;12055;52.098;13.176;2022-07-12T09:45:55;2.47;;;0.60;;
23750;SDS011;12055;52.098;13.176;2022-07-12T09:48:21;1.35;;;0.30;;
23750;SDS011;12055;52.098;13.176;2022-07-12T09:50:47;0.63;;;0.32;;
23750;SDS011;12055;52.098;13.176;2022-07-12T09:53:17;0.32;;;0.30;;
23750;SDS011;12055;52.098;13.176;2022-07-12T09:55:47;2.88;;;0.80;;
23750;SDS011;12055;52.098;13.176;2022-07-12T09:58:18;1.13;;;0.50;;
23750;SDS011;12055;52.098;13.176;2022-07-12T10:00:49;0.95;;;0.55;;
23750;SDS011;12055;52.098;13.176;2022-07-12T10:03:16;0.88;;;0.57;;
23750;SDS011;12055;52.098;13.176;2022-07-12T10:05:44;3.17;;;0.85;;
23750;SDS011;12055;52.098;13.176;2022-07-12T10:08:11;0.20;;;0.20;;
23750;SDS011;12055;52.098;13.176;2022-07-12T10:10:38;0.60;;;0.30;;
23750;SDS011;12055;52.098;13.176;2022-07-12T10:13:03;0.40;;;0.40;;
23750;SDS011;12055;52.098;13.176;2022-07-12T10:15:29;0.85;;;0.40;;
23750;SDS011;12055;52.098;13.176;2022-07-12T10:17:57;1.08;;;0.50;;
23750;SDS011;12055;52.098;13.176;2022-07-12T10:20:26;0.90;;;0.47;;
23750;SDS011;12055;52.098;13.176;2022-07-12T10:22:52;4.15;;;0.50;;
23750;SDS011;12055;52.098;13.176;2022-07-12T10:27:53;0.95;;;0.45;;
23750;SDS011;12055;52.098;13.176;2022-07-12T10:30:20;0.82;;;0.50;;
23750;SDS011;12055;52.098;13.176;2022-07-12T10:32:47;0.98;;;0.30;;
23750;SDS011;12055;52.098;13.176;2022-07-12T10:35:18;0.50;;;0.50;;
23750;SDS011;12055;52.098;13.176;2022-07-12T10:40:39;4.03;;;0.47;;
23750;SDS011;12055;52.098;13.176;2022-07-12T10:45:34;0.50;;;0.50;;
23750;SDS011;12055;52.098;13.176;2022-07-12T10:48:28;1.67;;;0.45;;
23750;SDS011;12055;52.098;13.176;2022-07-12T10:50:54;2.38;;;0.45;;
23750;SDS011;12055;52.098;13.176;2022-07-12T10:53:33;0.77;;;0.50;;
23750;SDS011;12055;52.098;13.176;2022-07-12T10:58:45;0.75;;;0.40;;
23750;SDS011;12055;52.098;13.176;2022-07-12T11:06:15;2.35;;;0.50;;
23750;SDS011;12055;52.098;13.176;2022-07-12T11:09:01;0.80;;;0.65;;
23750;SDS011;12055;52.098;13.176;2022-07-12T11:13:55;1.67;;;0.73;;
23750;SDS011;12055;52.098;13.176;2022-07-12T11:16:22;2.25;;;0.50;;
23750;SDS011;12055;52.098;13.176;2022-07-12T11:18:49;0.68;;;0.50;;
23750;SDS011;12055;52.098;13.176;2022-07-12T11:21:14;0.90;;;0.52;;
23750;SDS011;12055;52.098;13.176;2022-07-12T11:23:41;0.82;;;0.45;;
23750;SDS011;12055;52.098;13.176;2022-07-12T11:26:07;1.08;;;0.60;;
23750;SDS011;12055;52.098;13.176;2022-07-12T11:28:33;0.45;;;0.30;;
23750;SDS011;12055;52.098;13.176;2022-07-12T11:33:32;2.00;;;0.50;;
23750;SDS011;12055;52.098;13.176;2022-07-12T11:36:00;2.13;;;0.50;;
23750;SDS011;12055;52.098;13.176;2022-07-12T11:38:28;1.00;;;0.60;;
23750;SDS011;12055;52.098;13.176;2022-07-12T11:40:54;1.13;;;0.93;;
23750;SDS011;12055;52.098;13.176;2022-07-12T11:43:21;0.40;;;0.40;;
23750;SDS011;12055;52.098;13.176;2022-07-12T11:45:48;0.32;;;0.32;;
23750;SDS011;12055;52.098;13.176;2022-07-12T11:48:13;1.30;;;0.52;;
23750;SDS011;12055;52.098;13.176;2022-07-12T11:50:41;0.85;;;0.50;;
23750;SDS011;12055;52.098;13.176;2022-07-12T11:53:14;0.52;;;0.52;;
23750;SDS011;12055;52.098;13.176;2022-07-12T11:55:51;1.88;;;0.60;;
23750;SDS011;12055;52.098;13.176;2022-07-12T11:58:18;0.57;;;0.52;;
23750;SDS011;12055;52.098;13.176;2022-07-12T12:00:44;0.60;;;0.45;;
23750;SDS011;12055;52.098;13.176;2022-07-12T12:03:11;0.40;;;0.40;;
23750;SDS011;12055;52.098;13.176;2022-07-12T12:05:37;1.52;;;0.68;;
23750;SDS011;12055;52.098;13.176;2022-07-12T12:08:06;0.75;;;0.75;;
23750;SDS011;12055;52.098;13.176;2022-07-12T12:10:33;1.10;;;0.70;;
23750;SDS011;12055;52.098;13.176;2022-07-12T12:12:59;2.55;;;0.98;;
23750;SDS011;12055;52.098;13.176;2022-07-12T12:15:30;2.28;;;0.82;;
23750;SDS011;12055;52.098;13.176;2022-07-12T12:17:58;4.70;;;0.70;;
23750;SDS011;12055;52.098;13.176;2022-07-12T12:20:26;1.25;;;0.80;;
23750;SDS011;12055;52.098;13.176;2022-07-12T12:22:57;1.33;;;0.52;;
23750;SDS011;12055;52.098;13.176;2022-07-12T12:25:23;0.50;;;0.50;;
23750;SDS011;12055;52.098;13.176;2022-07-12T12:27:57;0.77;;;0.63;;
23750;SDS011;12055;52.098;13.176;2022-07-12T12:30:25;1.23;;;0.90;;
23750;SDS011;12055;52.098;13.176;2022-07-12T12:32:52;0.70;;;0.70;;
23750;SDS011;12055;52.098;13.176;2022-07-12T12:35:20;0.70;;;0.70;;
23750;SDS011;12055;52.098;13.176;2022-07-12T12:37:51;1.02;;;0.50;;
23750;SDS011;12055;52.098;13.176;2022-07-12T12:40:18;3.05;;;0.75;;
23750;SDS011;12055;52.098;13.176;2022-07-12T12:42:48;2.35;;;1.00;;
23750;SDS011;12055;52.098;13.176;2022-07-12T12:45:24;0.65;;;0.50;;
23750;SDS011;12055;52.098;13.176;2022-07-12T12:53:09;0.65;;;0.65;;
23750;SDS011;12055;52.098;13.176;2022-07-12T12:55:40;1.05;;;0.60;;
23750;SDS011;12055;52.098;13.176;2022-07-12T12:58:16;0.90;;;0.65;;
23750;SDS011;12055;52.098;13.176;2022-07-12T13:00:44;0.57;;;0.57;;
23750;SDS011;12055;52.098;13.176;2022-07-12T13:03:12;1.23;;;0.90;;
23750;SDS011;12055;52.098;13.176;2022-07-12T13:05:39;0.85;;;0.70;;
23750;SDS011;12055;52.098;13.176;2022-07-12T13:08:05;1.08;;;0.70;;
23750;SDS011;12055;52.098;13.176;2022-07-12T13:10:31;1.38;;;0.85;;
23750;SDS011;12055;52.098;13.176;2022-07-12T13:12:57;3.78;;;0.90;;
23750;SDS011;12055;52.098;13.176;2022-07-12T13:15:26;0.82;;;0.70;;
23750;SDS011;12055;52.098;13.176;2022-07-12T13:17:52;0.80;;;0.60;;
23750;SDS011;12055;52.098;13.176;2022-07-12T13:20:18;1.23;;;0.60;;
23750;SDS011;12055;52.098;13.176;2022-07-12T13:22:44;0.70;;;0.40;;
23750;SDS011;12055;52.098;13.176;2022-07-12T13:25:11;0.60;;;0.60;;
23750;SDS011;12055;52.098;13.176;2022-07-12T13:27:38;1.10;;;0.70;;
23750;SDS011;12055;52.098;13.176;2022-07-12T13:30:05;2.35;;;0.77;;
23750;SDS011;12055;52.098;13.176;2022-07-12T13:32:32;0.52;;;0.45;;
23750;SDS011;12055;52.098;13.176;2022-07-12T13:34:58;2.85;;;1.05;;
23750;SDS011;12055;52.098;13.176;2022-07-12T13:37:24;0.70;;;0.68;;
23750;SDS011;12055;52.098;13.176;2022-07-12T13:39:50;1.77;;;0.80;;
23750;SDS011;12055;52.098;13.176;2022-07-12T13:42:34;1.08;;;0.60;;
23750;SDS011;12055;52.098;13.176;2022-07-12T13:44:59;1.73;;;0.85;;
23750;SDS011;12055;52.098;13.176;2022-07-12T13:47:25;1.67;;;0.70;;
23750;SDS011;12055;52.098;13.176;2022-07-12T13:49:51;2.55;;;0.82;;
23750;SDS011;12055;52.098;13.176;2022-07-12T13:52:16;5.95;;;0.75;;
23750;SDS011;12055;52.098;13.176;2022-07-12T13:54:45;0.65;;;0.52;;
23750;SDS011;12055;52.098;13.176;2022-07-12T13:57:10;1.55;;;0.50;;
23750;SDS011;12055;52.098;13.176;2022-07-12T13:59:36;1.00;;;0.60;;
23750;SDS011;12055;52.098;13.176;2022-07-12T14:02:02;0.50;;;0.50;;
23750;SDS011;12055;52.098;13.176;2022-07-12T14:04:28;0.90;;;0.50;;
23750;SDS011;12055;52.098;13.176;2022-07-12T14:06:54;1.65;;;0.60;;
23750;SDS011;12055;52.098;13.176;2022-07-12T14:09:20;1.60;;;0.70;;
23750;SDS011;12055;52.098;13.176;2022-07-12T14:11:46;1.27;;;0.80;;
23750;SDS011;12055;52.098;13.176;2022-07-12T14:14:11;1.30;;;0.60;;
23750;SDS011;12055;52.098;13.176;2022-07-12T14:16:37;0.63;;;0.63;;
23750;SDS011;12055;52.098;13.176;2022-07-12T14:19:02;1.35;;;0.77;;
23750;SDS011;12055;52.098;13.176;2022-07-12T14:21:28;1.25;;;0.65;;
23750;SDS011;12055;52.098;13.176;2022-07-12T14:23:54;0.75;;;0.70;;
23750;SDS011;12055;52.098;13.176;2022-07-12T14:26:21;2.05;;;0.60;;
23750;SDS011;12055;52.098;13.176;2022-07-12T14:28:46;1.73;;;0.60;;
23750;SDS011;12055;52.098;13.176;2022-07-12T14:31:11;0.65;;;0.57;;
23750;SDS011;12055;52.098;13.176;2022-07-12T14:33:37;0.80;;;0.60;;
23750;SDS011;12055;52.098;13.176;2022-07-12T14:36:02;0.90;;;0.80;;
23750;SDS011;12055;52.098;13.176;2022-07-12T14:38:28;2.17;;;0.68;;
23750;SDS011;12055;52.098;13.176;2022-07-12T14:40:54;0.95;;;0.55;;
23750;SDS011;12055;52.098;13.176;2022-07-12T14:43:19;0.73;;;0.68;;
23750;SDS011;12055;52.098;13.176;2022-07-12T14:45:45;2.20;;;0.90;;
23750;SDS011;12055;52.098;13.176;2022-07-12T14:48:11;0.93;;;0.57;;
23750;SDS011;12055;52.098;13.176;2022-07-12T14:50:37;0.55;;;0.43;;
23750;SDS011;12055;52.098;13.176;2022-07-12T14:53:03;2.00;;;0.50;;
23750;SDS011;12055;52.098;13.176;2022-07-12T14:55:28;0.90;;;0.50;;
23750;SDS011;12055;52.098;13.176;2022-07-12T14:57:54;0.32;;;0.32;;
23750;SDS011;12055;52.098;13.176;2022-07-12T15:00:19;1.95;;;0.85;;
23750;SDS011;12055;52.098;13.176;2022-07-12T15:02:46;0.90;;;0.60;;
23750;SDS011;12055;52.098;13.176;2022-07-12T15:05:12;4.40;;;1.63;;